Time;durP1;ratioP1;P1;durP2;ratioP2;P2;SDS_P1;SDS_P2;PMS_P1;PMS_P2;Temp;Humidity;BMP_temperature;BMP_pressure;BME280_temperature;BME280_humidity;BME280_pressure;Samples;Min_cycle;Max_cycle;Signal;HPM_P1;HPM_P2
2023/05/15 04:52:45;;;;;;;1999.90;999.90;;;;;;;;;;5066491;23;20041;-63
2023/05/15 04:55:11;;;;;;;1999.90;999.90;;;;;;;;;;4991705;28;20030;-63
2023/05/15 04:57:37;;;;;;;1999.90;999.90;;;;;;;;;;5011970;28;20026;-69
2023/05/15 05:00:09;;;;;;;1999.90;999.90;;;;;;;;;;5012046;28;20030;-67
2023/05/15 05:02:35;;;;;;;1999.90;999.90;;;;;;;;;;5012003;28;20374;-74
2023/05/15 05:05:01;;;;;;;1999.90;999.90;;;;;;;;;;5011447;28;20034;-64
2023/05/15 05:07:27;;;;;;;1999.90;999.90;;;;;;;;;;5011574;28;20026;-63
2023/05/15 05:09:53;;;;;;;1999.90;999.90;;;;;;;;;;5011775;28;20030;-63
2023/05/15 05:12:19;;;;;;;1999.90;999.90;;;;;;;;;;4999004;28;20458;-64
2023/05/15 05:14:45;;;;;;;1999.90;999.90;;;;;;;;;;4992051;28;20097;-68
2023/05/15 05:17:11;;;;;;;1999.90;999.90;;;;;;;;;;4999939;28;20030;-65
2023/05/15 05:19:37;;;;;;;1999.90;999.90;;;;;;;;;;5011408;28;20052;-72
2023/05/15 05:22:04;;;;;;;1999.90;999.90;;;;;;;;;;5011374;28;20030;-75
2023/05/15 05:24:31;;;;;;;1999.90;999.90;;;;;;;;;;4993441;28;20034;-64
2023/05/15 05:26:57;;;;;;;1999.90;999.90;;;;;;;;;;5011829;28;20144;-67
2023/05/15 05:29:23;;;;;;;1999.90;999.90;;;;;;;;;;5011063;28;20140;-64
2023/05/15 05:31:50;;;;;;;1999.90;999.90;;;;;;;;;;5003187;28;20034;-75
2023/05/15 05:34:16;;;;;;;1999.90;999.90;;;;;;;;;;4997386;28;20057;-64
2023/05/15 05:36:42;;;;;;;1999.90;999.90;;;;;;;;;;4991810;28;20026;-77
2023/05/15 05:39:09;;;;;;;1999.90;999.90;;;;;;;;;;4991621;28;20062;-65
2023/05/15 05:41:35;;;;;;;1999.90;999.90;;;;;;;;;;4991720;28;20069;-69
2023/05/15 05:44:01;;;;;;;1999.90;999.90;;;;;;;;;;4991879;28;20077;-64
2023/05/15 05:46:27;;;;;;;1999.90;999.90;;;;;;;;;;4991658;28;20553;-65
2023/05/15 05:48:53;;;;;;;1999.90;999.90;;;;;;;;;;4991636;28;20034;-74
2023/05/15 05:51:20;;;;;;;1999.90;999.90;;;;;;;;;;4991289;28;20053;-64
2023/05/15 05:53:46;;;;;;;1999.90;999.90;;;;;;;;;;4991844;28;20037;-66
2023/05/15 05:56:12;;;;;;;1999.90;999.90;;;;;;;;;;4990766;28;20034;-69
2023/05/15 05:58:38;;;;;;;1999.90;999.90;;;;;;;;;;4990266;28;20482;-74
2023/05/15 06:01:04;;;;;;;1999.90;999.90;;;;;;;;;;4987731;28;20046;-65
2023/05/15 06:03:30;;;;;;;1999.90;999.90;;;;;;;;;;4990257;28;20386;-62
2023/05/15 06:05:56;;;;;;;1999.90;999.90;;;;;;;;;;4990076;28;20023;-67
2023/05/15 06:08:22;;;;;;;1999.90;999.90;;;;;;;;;;4990547;28;20039;-62
2023/05/15 06:10:48;;;;;;;1999.90;999.90;;;;;;;;;;4991386;28;20026;-63
2023/05/15 06:13:14;;;;;;;1999.90;999.90;;;;;;;;;;4991457;28;20037;-64
2023/05/15 06:15:41;;;;;;;1999.90;999.90;;;;;;;;;;4990175;28;20072;-66
2023/05/15 06:18:07;;;;;;;1999.90;999.90;;;;;;;;;;4990149;28;20062;-63
2023/05/15 06:20:33;;;;;;;1999.90;999.90;;;;;;;;;;4990570;28;20423;-72
2023/05/15 06:22:59;;;;;;;1999.90;999.90;;;;;;;;;;4993792;28;20040;-67
2023/05/15 06:25:25;;;;;;;1999.90;999.90;;;;;;;;;;4995451;28;20065;-73
2023/05/15 06:27:51;;;;;;;1999.90;999.90;;;;;;;;;;4995315;28;20062;-66
2023/05/15 06:30:17;;;;;;;1999.90;999.90;;;;;;;;;;4995113;28;20088;-66
2023/05/15 06:32:43;;;;;;;1999.90;999.90;;;;;;;;;;4995284;28;20026;-64
2023/05/15 06:35:10;;;;;;;1999.90;999.90;;;;;;;;;;4995197;28;20088;-64
2023/05/15 06:37:36;;;;;;;1999.90;999.90;;;;;;;;;;4995211;28;20061;-62
2023/05/15 06:40:02;;;;;;;1999.90;999.90;;;;;;;;;;4995227;28;20022;-63
2023/05/15 06:42:28;;;;;;;1999.90;999.90;;;;;;;;;;4995003;28;20033;-73
2023/05/15 06:44:55;;;;;;;1999.90;999.90;;;;;;;;;;4995197;28;20109;-65
2023/05/15 06:47:21;;;;;;;1999.90;999.90;;;;;;;;;;4994541;28;20027;-72
2023/05/15 06:49:47;;;;;;;1999.90;999.90;;;;;;;;;;4994404;28;20034;-64
2023/05/15 06:52:13;;;;;;;1999.90;999.90;;;;;;;;;;4987049;28;20141;-65
2023/05/15 06:54:42;;;;;;;1999.90;999.90;;;;;;;;;;4993932;28;20034;-64
2023/05/15 06:57:08;;;;;;;1999.90;999.90;;;;;;;;;;4993760;28;20019;-65
2023/05/15 06:59:34;;;;;;;1999.90;999.90;;;;;;;;;;5001212;28;20034;-64
2023/05/15 07:02:03;;;;;;;1999.90;999.90;;;;;;;;;;5014356;28;20022;-65
2023/05/15 07:04:29;;;;;;;1999.90;999.90;;;;;;;;;;5008791;28;20097;-71
2023/05/15 07:06:56;;;;;;;1999.90;999.90;;;;;;;;;;4993229;28;20394;-67
2023/05/15 07:09:22;;;;;;;1999.90;999.90;;;;;;;;;;4993562;28;20014;-66
2023/05/15 07:11:48;;;;;;;1999.90;999.90;;;;;;;;;;4993846;28;20029;-64
2023/05/15 07:14:14;;;;;;;1999.90;999.90;;;;;;;;;;4992999;28;20023;-66
2023/05/15 07:16:40;;;;;;;1999.90;999.90;;;;;;;;;;4992611;28;20053;-65
2023/05/15 07:19:08;;;;;;;1999.90;999.90;;;;;;;;;;4992922;28;20038;-66
2023/05/15 07:21:34;;;;;;;1999.90;999.90;;;;;;;;;;4992516;28;20069;-77
2023/05/15 07:24:00;;;;;;;1999.90;999.90;;;;;;;;;;4988780;28;20089;-66
2023/05/15 07:26:26;;;;;;;1999.90;999.90;;;;;;;;;;4984512;28;20026;-68
2023/05/15 07:28:52;;;;;;;1999.90;999.90;;;;;;;;;;4989489;28;20042;-73
2023/05/15 07:31:20;;;;;;;1999.90;999.90;;;;;;;;;;4992276;28;20430;-69
2023/05/15 07:33:46;;;;;;;1999.90;999.90;;;;;;;;;;4991048;28;20486;-66
2023/05/15 07:36:12;;;;;;;1999.90;999.90;;;;;;;;;;4986234;28;20089;-65
2023/05/15 07:38:38;;;;;;;1999.90;999.90;;;;;;;;;;4986234;28;20038;-66
2023/05/15 07:41:04;;;;;;;1999.90;999.90;;;;;;;;;;4990653;28;20026;-67
2023/05/15 07:43:30;;;;;;;1999.90;999.90;;;;;;;;;;4990740;28;20053;-68
2023/05/15 07:45:56;;;;;;;1999.90;999.90;;;;;;;;;;4992995;28;20087;-67
2023/05/15 07:48:23;;;;;;;1999.90;999.90;;;;;;;;;;4986902;28;20236;-65
2023/05/15 07:50:51;;;;;;;1999.90;999.90;;;;;;;;;;4991104;28;20042;-67
2023/05/15 07:53:17;;;;;;;1999.90;999.90;;;;;;;;;;4990888;28;20038;-67
2023/05/15 07:55:43;;;;;;;1999.90;999.90;;;;;;;;;;4993707;28;20037;-66
2023/05/15 07:58:09;;;;;;;1999.90;999.90;;;;;;;;;;4993708;28;20034;-67
2023/05/15 08:00:36;;;;;;;1999.90;999.90;;;;;;;;;;4992151;28;20029;-65
2023/05/15 08:03:02;;;;;;;1999.90;999.90;;;;;;;;;;4992944;28;20026;-65
2023/05/15 08:05:28;;;;;;;1999.90;999.90;;;;;;;;;;4992212;28;20053;-67
2023/05/15 08:07:55;;;;;;;1999.90;999.90;;;;;;;;;;4990748;28;20474;-70
2023/05/15 08:10:21;;;;;;;1999.90;999.90;;;;;;;;;;4991830;28;20088;-68
2023/05/15 08:12:49;;;;;;;1999.90;999.90;;;;;;;;;;4989185;28;20714;-74
2023/05/15 08:15:15;;;;;;;1999.90;999.90;;;;;;;;;;4991821;28;20105;-67
2023/05/15 08:17:41;;;;;;;1999.90;999.90;;;;;;;;;;4992046;28;20489;-67
2023/05/15 08:20:07;;;;;;;1999.90;999.90;;;;;;;;;;4993017;28;20034;-67
2023/05/15 08:22:33;;;;;;;1999.90;999.90;;;;;;;;;;4992436;28;20082;-69
2023/05/15 08:24:59;;;;;;;1999.90;999.90;;;;;;;;;;4992855;28;20513;-67
2023/05/15 08:27:26;;;;;;;1999.90;999.90;;;;;;;;;;4993211;28;20739;-66
2023/05/15 08:29:53;;;;;;;1999.90;999.90;;;;;;;;;;4992469;28;20030;-66
2023/05/15 08:32:19;;;;;;;1999.90;999.90;;;;;;;;;;4992714;28;20026;-66
2023/05/15 08:34:45;;;;;;;1999.90;999.90;;;;;;;;;;4992132;28;20083;-66
2023/05/15 08:37:11;;;;;;;1999.90;999.90;;;;;;;;;;4990955;28;20022;-66
2023/05/15 08:39:37;;;;;;;1999.90;999.90;;;;;;;;;;4990558;28;20041;-73
2023/05/15 08:42:18;;;;;;;1999.90;999.90;;;;;;;;;;4992472;28;20015;-71
2023/05/15 08:44:45;;;;;;;1999.90;999.90;;;;;;;;;;4990422;28;20459;-66
2023/05/15 08:47:11;;;;;;;1999.90;999.90;;;;;;;;;;4992522;28;20053;-72
2023/05/15 08:49:40;;;;;;;1999.90;999.90;;;;;;;;;;4974023;28;20153;-72
2023/05/15 08:52:06;;;;;;;1999.90;999.90;;;;;;;;;;4991689;28;20116;-69
2023/05/15 08:54:32;;;;;;;1999.90;999.90;;;;;;;;;;4993290;28;20100;-67
2023/05/15 08:57:00;;;;;;;1999.90;999.90;;;;;;;;;;4992341;28;20692;-71
2023/05/15 08:59:26;;;;;;;1999.90;999.90;;;;;;;;;;4991877;28;20077;-66
2023/05/15 09:01:52;;;;;;;1999.90;999.90;;;;;;;;;;4991507;28;20030;-72
2023/05/15 09:04:18;;;;;;;1999.90;999.90;;;;;;;;;;4992431;28;20033;-68
2023/05/15 09:06:46;;;;;;;1999.90;999.90;;;;;;;;;;4991910;28;20054;-70
2023/05/15 09:09:12;;;;;;;1999.90;999.90;;;;;;;;;;4991739;28;20038;-70
2023/05/15 09:11:45;;;;;;;1999.90;999.90;;;;;;;;;;4992335;28;20482;-71
2023/05/15 09:14:11;;;;;;;1999.90;999.90;;;;;;;;;;4992191;28;20030;-73
2023/05/15 09:16:37;;;;;;;1999.90;999.90;;;;;;;;;;4992208;28;20089;-72
2023/05/15 09:19:05;;;;;;;1999.90;999.90;;;;;;;;;;4991846;28;20066;-69
2023/05/15 09:21:31;;;;;;;1999.90;999.90;;;;;;;;;;4991723;28;20068;-72
2023/05/15 09:24:16;;;;;;;1999.90;999.90;;;;;;;;;;4992170;28;20034;-72
2023/05/15 09:26:46;;;;;;;1999.90;999.90;;;;;;;;;;4991127;28;20037;-75
2023/05/15 09:29:15;;;;;;;1999.90;999.90;;;;;;;;;;4991613;28;20049;-72
2023/05/15 09:31:41;;;;;;;1999.90;999.90;;;;;;;;;;4991424;28;20112;-72
2023/05/15 09:34:09;;;;;;;1999.90;999.90;;;;;;;;;;4991144;28;20029;-66
2023/05/15 09:36:35;;;;;;;1999.90;999.90;;;;;;;;;;4990407;28;20024;-70
2023/05/15 09:39:02;;;;;;;1999.90;999.90;;;;;;;;;;4990476;28;20040;-76
2023/05/15 09:41:28;;;;;;;1999.90;999.90;;;;;;;;;;4991581;28;20042;-75
2023/05/15 09:43:55;;;;;;;1999.90;999.90;;;;;;;;;;4973110;28;20125;-78
2023/05/15 09:46:21;;;;;;;1999.90;999.90;;;;;;;;;;4991321;28;20041;-73
2023/05/15 09:48:48;;;;;;;1999.90;999.90;;;;;;;;;;4973335;28;20504;-77
2023/05/15 09:51:15;;;;;;;1999.90;999.90;;;;;;;;;;4975270;28;20046;-76
2023/05/15 09:53:41;;;;;;;1999.90;999.90;;;;;;;;;;4991052;28;20510;-72
2023/05/15 09:56:09;;;;;;;1999.90;999.90;;;;;;;;;;4990757;28;20034;-72
2023/05/15 09:58:35;;;;;;;1999.90;999.90;;;;;;;;;;4990632;28;20034;-71
2023/05/15 10:01:02;;;;;;;1999.90;999.90;;;;;;;;;;4991613;28;20023;-75
2023/05/15 10:03:28;;;;;;;1999.90;999.90;;;;;;;;;;4991556;28;20018;-72
2023/05/15 10:06:03;;;;;;;1999.90;999.90;;;;;;;;;;4989976;28;20132;-73
2023/05/15 10:08:29;;;;;;;1999.90;999.90;;;;;;;;;;4991220;28;20026;-72
2023/05/15 10:10:59;;;;;;;1999.90;999.90;;;;;;;;;;4991385;28;20058;-73
2023/05/15 10:13:26;;;;;;;1999.90;999.90;;;;;;;;;;4989785;28;20219;-72
2023/05/15 10:15:52;;;;;;;1999.90;999.90;;;;;;;;;;4991358;28;20027;-73
2023/05/15 10:18:23;;;;;;;1999.90;999.90;;;;;;;;;;4991110;28;20074;-73
2023/05/15 10:20:50;;;;;;;1999.90;999.90;;;;;;;;;;4991300;28;20065;-73
2023/05/15 10:23:17;;;;;;;1999.90;999.90;;;;;;;;;;4991242;28;20427;-73
2023/05/15 10:25:43;;;;;;;1999.90;999.90;;;;;;;;;;4984876;28;20025;-74
2023/05/15 10:28:10;;;;;;;1999.90;999.90;;;;;;;;;;4981225;28;20492;-72
2023/05/15 10:30:37;;;;;;;1999.90;999.90;;;;;;;;;;4971615;28;20124;-72
2023/05/15 10:33:07;;;;;;;1999.90;999.90;;;;;;;;;;4986858;28;20031;-66
2023/05/15 10:35:35;;;;;;;1999.90;999.90;;;;;;;;;;4970948;28;20477;-70
2023/05/15 10:38:03;;;;;;;1999.90;999.90;;;;;;;;;;4978627;28;20034;-73
2023/05/15 10:40:30;;;;;;;1999.90;999.90;;;;;;;;;;4978977;28;20034;-73
2023/05/15 10:42:57;;;;;;;1999.90;999.90;;;;;;;;;;4986891;28;20077;-69
2023/05/15 10:45:23;;;;;;;1999.90;999.90;;;;;;;;;;4973452;28;20402;-72
2023/05/15 10:47:50;;;;;;;1999.90;999.90;;;;;;;;;;4983205;28;20023;-73
2023/05/15 10:50:16;;;;;;;1999.90;999.90;;;;;;;;;;4981512;28;20038;-74
2023/05/15 10:52:42;;;;;;;1999.90;999.90;;;;;;;;;;4976834;28;20085;-74
2023/05/15 10:55:17;;;;;;;1999.90;999.90;;;;;;;;;;4987538;28;20038;-74
2023/05/15 10:57:46;;;;;;;1999.90;999.90;;;;;;;;;;4976763;28;20033;-66
2023/05/15 11:00:33;;;;;;;1999.90;999.90;;;;;;;;;;4981014;28;20084;-73
2023/05/15 11:02:59;;;;;;;1999.90;999.90;;;;;;;;;;4989347;28;20033;-72
2023/05/15 11:05:26;;;;;;;1999.90;999.90;;;;;;;;;;4990948;28;20030;-73
2023/05/15 11:08:11;;;;;;;1999.90;999.90;;;;;;;;;;4991172;28;20026;-72
2023/05/15 11:10:38;;;;;;;1999.90;999.90;;;;;;;;;;4976856;28;20385;-71
2023/05/15 11:13:04;;;;;;;1999.90;999.90;;;;;;;;;;4993630;28;20029;-75
2023/05/15 11:15:59;;;;;;;1999.90;999.90;;;;;;;;;;4993723;28;20053;-73
2023/05/15 11:18:25;;;;;;;1999.90;999.90;;;;;;;;;;4894914;29;20060;-73
2023/05/15 11:20:52;;;;;;;1999.90;999.90;;;;;;;;;;4895058;29;20025;-75
2023/05/15 11:23:21;;;;;;;1999.90;999.90;;;;;;;;;;4894888;29;20048;-74
2023/05/15 11:25:53;;;;;;;1999.90;999.90;;;;;;;;;;4895221;29;20525;-70
2023/05/15 11:28:19;;;;;;;;;;;;;;;;;;4893010;29;20084;-71
2023/05/15 11:30:50;;;;;;;1999.90;999.90;;;;;;;;;;4894497;29;19923;-71
2023/05/15 11:33:16;;;;;;;1999.90;999.90;;;;;;;;;;4893304;29;20032;-71
2023/05/15 11:35:42;;;;;;;1999.90;999.90;;;;;;;;;;4895828;29;20373;-70
2023/05/15 11:38:14;;;;;;;1999.90;999.90;;;;;;;;;;4874961;29;20395;-70
2023/05/15 11:40:51;;;;;;;1999.90;999.90;;;;;;;;;;4895995;29;20059;-67
2023/05/15 11:43:21;;;;;;;1999.90;999.90;;;;;;;;;;4895767;29;20063;-71
2023/05/15 11:45:48;;;;;;;1999.90;999.90;;;;;;;;;;4904972;29;20044;-71
2023/05/15 11:48:15;;;;;;;1999.90;999.90;;;;;;;;;;4897395;29;20523;-70
2023/05/15 11:50:43;;;;;;;1999.90;999.90;;;;;;;;;;4880284;29;20048;-68
2023/05/15 11:53:09;;;;;;;1999.90;999.90;;;;;;;;;;4898686;29;20040;-70
2023/05/15 11:55:37;;;;;;;1999.90;999.90;;;;;;;;;;4979513;28;20042;-68
2023/05/15 11:58:03;;;;;;;1999.90;999.90;;;;;;;;;;4992179;28;20129;-67
2023/05/15 12:00:30;;;;;;;1999.90;999.90;;;;;;;;;;4993478;28;20038;-68
2023/05/15 12:02:56;;;;;;;1999.90;999.90;;;;;;;;;;4993661;28;20069;-69
2023/05/15 12:05:22;;;;;;;1999.90;999.90;;;;;;;;;;4993737;28;20026;-69
2023/05/15 12:07:49;;;;;;;1999.90;999.90;;;;;;;;;;4992923;28;20128;-67
2023/05/15 12:10:15;;;;;;;1999.90;999.90;;;;;;;;;;4993304;28;20031;-69
2023/05/15 12:12:42;;;;;;;1999.90;999.90;;;;;;;;;;4991722;28;20040;-69
2023/05/15 12:15:12;;;;;;;1999.90;999.90;;;;;;;;;;4991756;28;20026;-69
2023/05/15 12:17:41;;;;;;;1999.90;999.90;;;;;;;;;;4991745;28;20129;-70
2023/05/15 12:32:46;;;;;;;1999.90;999.90;;;;;;;;;;4946239;29;20046;-71
2023/05/15 12:35:12;;;;;;;1999.90;999.90;;;;;;;;;;4934479;29;20395;-70
2023/05/15 12:37:38;;;;;;;1999.90;999.90;;;;;;;;;;4933386;29;20127;-70
2023/05/15 12:40:10;;;;;;;1999.90;999.90;;;;;;;;;;4933957;29;20063;-70
2023/05/15 12:42:43;;;;;;;1999.90;999.90;;;;;;;;;;4917779;29;20110;-70
2023/05/15 12:45:19;;;;;;;1999.90;999.90;;;;;;;;;;4933689;29;20028;-70
2023/05/15 12:47:47;;;;;;;1999.90;999.90;;;;;;;;;;4918060;29;20036;-70
2023/05/15 12:50:31;;;;;;;1999.90;999.90;;;;;;;;;;4917712;29;20070;-68
2023/05/15 12:53:01;;;;;;;1999.90;999.90;;;;;;;;;;4916888;29;20082;-71
2023/05/15 12:55:27;;;;;;;1999.90;999.90;;;;;;;;;;4931670;29;20036;-69
2023/05/15 12:57:56;;;;;;;1999.90;999.90;;;;;;;;;;4917158;29;20043;-67
2023/05/15 13:00:23;;;;;;;1999.90;999.90;;;;;;;;;;4933911;29;20151;-70
2023/05/15 13:02:50;;;;;;;1999.90;999.90;;;;;;;;;;4917649;29;20040;-68
2023/05/15 13:05:16;;;;;;;1999.90;999.90;;;;;;;;;;4917860;29;20587;-69
2023/05/15 13:07:43;;;;;;;1999.90;999.90;;;;;;;;;;4917077;29;20373;-69
2023/05/15 13:10:10;;;;;;;1999.90;999.90;;;;;;;;;;4988772;28;20038;-69
2023/05/15 13:12:37;;;;;;;1999.90;999.90;;;;;;;;;;4993156;28;20084;-71
2023/05/15 13:15:04;;;;;;;1999.90;999.90;;;;;;;;;;4993263;28;20501;-72
2023/05/15 13:17:30;;;;;;;1999.90;999.90;;;;;;;;;;4992938;28;20029;-72
2023/05/15 13:19:56;;;;;;;1999.90;999.90;;;;;;;;;;4992418;28;20518;-70
2023/05/15 13:22:22;;;;;;;1999.90;999.90;;;;;;;;;;4993380;28;20370;-70
2023/05/15 13:24:48;;;;;;;1999.90;999.90;;;;;;;;;;4993700;28;20029;-71
2023/05/15 13:27:14;;;;;;;1999.90;999.90;;;;;;;;;;4993294;28;20026;-69
2023/05/15 13:29:41;;;;;;;1999.90;999.90;;;;;;;;;;4992967;28;20023;-74
2023/05/15 13:32:07;;;;;;;1999.90;999.90;;;;;;;;;;4991153;28;20365;-74
2023/05/15 13:34:33;;;;;;;1999.90;999.90;;;;;;;;;;4975587;28;20117;-74
2023/05/15 13:37:00;;;;;;;1999.90;999.90;;;;;;;;;;4993355;28;20041;-71
2023/05/15 13:39:26;;;;;;;1999.90;999.90;;;;;;;;;;4992019;28;20050;-77
2023/05/15 13:41:53;;;;;;;1999.90;999.90;;;;;;;;;;4991791;28;20118;-76
2023/05/15 13:44:19;;;;;;;1999.90;999.90;;;;;;;;;;4991778;28;20544;-76
2023/05/15 13:46:45;;;;;;;1999.90;999.90;;;;;;;;;;5006397;28;20065;-81
2023/05/15 13:49:12;;;;;;;1999.90;999.90;;;;;;;;;;5011115;28;20090;-79
2023/05/15 13:51:40;;;;;;;1999.90;999.90;;;;;;;;;;4998120;28;20057;-77
2023/05/15 13:54:06;;;;;;;1999.90;999.90;;;;;;;;;;4992910;28;20478;-80
2023/05/15 13:56:32;;;;;;;1999.90;999.90;;;;;;;;;;4992707;28;20042;-78
2023/05/15 13:58:59;;;;;;;1999.90;999.90;;;;;;;;;;4991378;28;20512;-73
2023/05/15 14:01:25;;;;;;;1999.90;999.90;;;;;;;;;;4991052;28;20026;-72
2023/05/15 14:03:52;;;;;;;1999.90;999.90;;;;;;;;;;4991289;28;20030;-72
2023/05/15 14:06:21;;;;;;;1999.90;999.90;;;;;;;;;;4991437;28;20030;-76
2023/05/15 14:08:48;;;;;;;1999.90;999.90;;;;;;;;;;4990212;28;20506;-74
2023/05/15 14:11:14;;;;;;;1999.90;999.90;;;;;;;;;;4991356;28;20034;-73
2023/05/15 14:13:41;;;;;;;1999.90;999.90;;;;;;;;;;4973835;28;20433;-75
2023/05/15 14:16:07;;;;;;;1999.90;999.90;;;;;;;;;;4992082;28;20026;-73
2023/05/15 14:18:33;;;;;;;1999.90;999.90;;;;;;;;;;4991787;28;20494;-75
2023/05/15 14:20:59;;;;;;;1999.90;999.90;;;;;;;;;;4973909;28;20375;-72
2023/05/15 14:23:25;;;;;;;1999.90;999.90;;;;;;;;;;4973900;28;20595;-75
2023/05/15 14:25:52;;;;;;;1999.90;999.90;;;;;;;;;;4989846;28;20489;-71
2023/05/15 14:28:18;;;;;;;1999.90;999.90;;;;;;;;;;4973867;28;20046;-72
2023/05/15 14:30:44;;;;;;;1999.90;999.90;;;;;;;;;;4992466;28;20038;-71
2023/05/15 14:33:10;;;;;;;1999.90;999.90;;;;;;;;;;4973870;28;20030;-74
2023/05/15 14:35:37;;;;;;;1999.90;999.90;;;;;;;;;;4974971;28;20046;-71
2023/05/15 14:38:03;;;;;;;1999.90;999.90;;;;;;;;;;4974575;28;20053;-72
2023/05/15 14:40:29;;;;;;;1999.90;999.90;;;;;;;;;;4991222;28;20030;-71
2023/05/15 14:43:02;;;;;;;1999.90;999.90;;;;;;;;;;4975365;28;20023;-70
2023/05/15 14:45:28;;;;;;;1999.90;999.90;;;;;;;;;;4996138;28;20027;-70
2023/05/15 14:47:54;;;;;;;1999.90;999.90;;;;;;;;;;4996195;28;20477;-71
2023/05/15 14:50:20;;;;;;;1999.90;999.90;;;;;;;;;;4978251;28;20035;-72
2023/05/15 14:52:47;;;;;;;1999.90;999.90;;;;;;;;;;4989903;28;20112;-70
2023/05/15 14:55:13;;;;;;;1999.90;999.90;;;;;;;;;;4993831;28;20126;-71
2023/05/15 14:57:40;;;;;;;1999.90;999.90;;;;;;;;;;4993920;28;20070;-73
2023/05/15 15:00:06;;;;;;;1999.90;999.90;;;;;;;;;;4995200;28;20041;-73
2023/05/15 15:02:33;;;;;;;1999.90;999.90;;;;;;;;;;4995400;28;20026;-72
2023/05/15 15:04:59;;;;;;;1999.90;999.90;;;;;;;;;;4995553;28;20035;-70
2023/05/15 15:07:28;;;;;;;1999.90;999.90;;;;;;;;;;4993558;28;20023;-72
2023/05/15 15:09:57;;;;;;;1999.90;999.90;;;;;;;;;;4993241;28;20133;-69
2023/05/15 15:12:32;;;;;;;1999.90;999.90;;;;;;;;;;4994496;28;20038;-71
2023/05/15 15:14:58;;;;;;;1999.90;999.90;;;;;;;;;;4978569;28;20030;-71
2023/05/15 15:17:24;;;;;;;1999.90;999.90;;;;;;;;;;4994612;28;20109;-72
2023/05/15 15:19:50;;;;;;;1999.90;999.90;;;;;;;;;;4995888;28;20073;-73
2023/05/15 15:22:19;;;;;;;1999.90;999.90;;;;;;;;;;4994156;28;20038;-73
2023/05/15 15:24:46;;;;;;;1999.90;999.90;;;;;;;;;;5013409;28;20037;-71
2023/05/15 15:27:12;;;;;;;1999.90;999.90;;;;;;;;;;5015310;28;20033;-71
2023/05/15 15:29:38;;;;;;;1999.90;999.90;;;;;;;;;;5014977;28;20033;-69
2023/05/15 15:32:04;;;;;;;1999.90;999.90;;;;;;;;;;5015755;28;20033;-71
2023/05/15 15:34:30;;;;;;;1999.90;999.90;;;;;;;;;;5015289;28;20025;-70
2023/05/15 15:36:57;;;;;;;1999.90;999.90;;;;;;;;;;5015166;28;20029;-69
2023/05/15 15:39:23;;;;;;;1999.90;999.90;;;;;;;;;;5014425;28;20042;-72
2023/05/15 15:41:49;;;;;;;1999.90;999.90;;;;;;;;;;5014676;28;20017;-72
2023/05/15 15:44:15;;;;;;;1999.90;999.90;;;;;;;;;;5014970;28;20022;-70
2023/05/15 15:46:41;;;;;;;1999.90;999.90;;;;;;;;;;5013519;28;20049;-71
2023/05/15 15:49:07;;;;;;;1999.90;999.90;;;;;;;;;;5013607;28;20037;-71
2023/05/15 15:51:34;;;;;;;1999.90;999.90;;;;;;;;;;5014141;28;20057;-70
2023/05/15 15:54:01;;;;;;;1999.90;999.90;;;;;;;;;;5014309;28;20108;-71
2023/05/15 15:56:27;;;;;;;1999.90;999.90;;;;;;;;;;5014404;28;20026;-71
2023/05/15 15:58:53;;;;;;;1999.90;999.90;;;;;;;;;;5014723;28;20034;-71
2023/05/15 16:01:21;;;;;;;1999.90;999.90;;;;;;;;;;5001319;28;20057;-71
2023/05/15 16:03:47;;;;;;;1999.90;999.90;;;;;;;;;;4994925;28;20030;-71
2023/05/15 16:06:13;;;;;;;1999.90;999.90;;;;;;;;;;4994884;28;20034;-73
2023/05/15 16:08:42;;;;;;;1999.90;999.90;;;;;;;;;;4994811;28;20058;-71
2023/05/15 16:11:08;;;;;;;1999.90;999.90;;;;;;;;;;4977547;28;20076;-71
2023/05/15 16:13:34;;;;;;;1999.90;999.90;;;;;;;;;;4977550;28;20038;-71
2023/05/15 16:16:01;;;;;;;1999.90;999.90;;;;;;;;;;4994979;28;20081;-71
2023/05/15 16:18:27;;;;;;;1999.90;999.90;;;;;;;;;;4994798;28;20050;-71
2023/05/15 16:20:53;;;;;;;1999.90;999.90;;;;;;;;;;4977173;28;20039;-71
2023/05/15 16:23:20;;;;;;;1999.90;999.90;;;;;;;;;;4977294;28;20030;-72
2023/05/15 16:25:46;;;;;;;1999.90;999.90;;;;;;;;;;4976604;28;20121;-72
2023/05/15 16:28:21;;;;;;;1999.90;999.90;;;;;;;;;;4993993;28;20022;-70
2023/05/15 16:30:49;;;;;;;1999.90;999.90;;;;;;;;;;4983278;28;20086;-70
2023/05/15 16:33:16;;;;;;;1999.90;999.90;;;;;;;;;;4993921;28;20118;-67
2023/05/15 16:35:42;;;;;;;1999.90;999.90;;;;;;;;;;4976437;28;20041;-71
2023/05/15 16:38:18;;;;;;;1999.90;999.90;;;;;;;;;;4975634;28;20069;-71
2023/05/15 16:40:45;;;;;;;1999.90;999.90;;;;;;;;;;4977136;28;20441;-72
2023/05/15 16:43:11;;;;;;;1999.90;999.90;;;;;;;;;;4976446;28;20475;-72
2023/05/15 16:45:38;;;;;;;1999.90;999.90;;;;;;;;;;4993554;28;20029;-72
2023/05/15 16:48:04;;;;;;;1999.90;999.90;;;;;;;;;;4976092;28;20556;-74
2023/05/15 16:50:40;;;;;;;1999.90;999.90;;;;;;;;;;4960367;28;20035;-72
2023/05/15 16:53:07;;;;;;;1999.90;999.90;;;;;;;;;;4953372;28;20129;-72
2023/05/15 16:55:33;;;;;;;1999.90;999.90;;;;;;;;;;4956714;28;20727;-73
2023/05/15 16:57:59;;;;;;;1999.90;999.90;;;;;;;;;;4956995;28;20035;-73
2023/05/15 17:00:25;;;;;;;1999.90;999.90;;;;;;;;;;4974146;28;20059;-73
2023/05/15 17:02:51;;;;;;;1999.90;999.90;;;;;;;;;;4974107;28;20015;-73
2023/05/15 17:05:18;;;;;;;1999.90;999.90;;;;;;;;;;4963201;28;20031;-72
2023/05/15 17:07:44;;;;;;;1999.90;999.90;;;;;;;;;;4993077;28;20482;-71
2023/05/15 17:10:11;;;;;;;1999.90;999.90;;;;;;;;;;4993131;28;20449;-72
2023/05/15 17:12:38;;;;;;;1999.90;999.90;;;;;;;;;;4976261;28;20061;-73
2023/05/15 17:15:07;;;;;;;1999.90;999.90;;;;;;;;;;4993771;28;20070;-71
2023/05/15 17:17:34;;;;;;;1999.90;999.90;;;;;;;;;;4975985;28;20120;-68
2023/05/15 17:20:00;;;;;;;1999.90;999.90;;;;;;;;;;4960060;28;20064;-73
2023/05/15 17:22:27;;;;;;;1999.90;999.90;;;;;;;;;;4993231;28;20034;-73
2023/05/15 17:24:56;;;;;;;1999.90;999.90;;;;;;;;;;4993278;28;20432;-72
2023/05/15 17:27:25;;;;;;;1999.90;999.90;;;;;;;;;;4993671;28;20034;-72
2023/05/15 17:29:51;;;;;;;1999.90;999.90;;;;;;;;;;4975717;28;20120;-72
2023/05/15 17:32:17;;;;;;;1999.90;999.90;;;;;;;;;;4975803;28;20541;-73
2023/05/15 17:34:48;;;;;;;1999.90;999.90;;;;;;;;;;4975920;28;20486;-72
2023/05/15 17:37:15;;;;;;;1999.90;999.90;;;;;;;;;;4975683;28;20394;-73
2023/05/15 17:39:41;;;;;;;1999.90;999.90;;;;;;;;;;4993250;28;20041;-72
2023/05/15 17:42:07;;;;;;;1999.90;999.90;;;;;;;;;;4993220;28;20026;-72
2023/05/15 17:44:34;;;;;;;1999.90;999.90;;;;;;;;;;4975560;28;20039;-72
2023/05/15 17:47:00;;;;;;;1999.90;999.90;;;;;;;;;;4976097;28;20050;-72
2023/05/15 17:49:26;;;;;;;1999.90;999.90;;;;;;;;;;4992984;28;20117;-72
2023/05/15 17:51:53;;;;;;;1999.90;999.90;;;;;;;;;;4993266;28;20149;-72
2023/05/15 17:54:19;;;;;;;1999.90;999.90;;;;;;;;;;4975479;28;20394;-72
2023/05/15 17:56:45;;;;;;;1999.90;999.90;;;;;;;;;;4975416;28;20026;-73
2023/05/15 17:59:12;;;;;;;1999.90;999.90;;;;;;;;;;4975242;28;20089;-72
2023/05/15 18:01:41;;;;;;;1999.90;999.90;;;;;;;;;;4993948;28;20027;-72
2023/05/15 18:04:07;;;;;;;1999.90;999.90;;;;;;;;;;4993720;28;20030;-73
2023/05/15 18:06:33;;;;;;;1999.90;999.90;;;;;;;;;;4993913;28;20147;-71
2023/05/15 18:08:59;;;;;;;1999.90;999.90;;;;;;;;;;4993459;28;20478;-72
2023/05/15 18:11:26;;;;;;;1999.90;999.90;;;;;;;;;;4974574;28;20026;-72
2023/05/15 18:13:52;;;;;;;1999.90;999.90;;;;;;;;;;4992683;28;20053;-72
2023/05/15 18:16:18;;;;;;;1999.90;999.90;;;;;;;;;;4992470;28;20054;-72
2023/05/15 18:18:47;;;;;;;1999.90;999.90;;;;;;;;;;4977128;28;20038;-72
2023/05/15 18:21:14;;;;;;;1999.90;999.90;;;;;;;;;;4996919;28;20026;-72
2023/05/15 18:23:40;;;;;;;1999.90;999.90;;;;;;;;;;4979742;28;20394;-72
2023/05/15 18:26:06;;;;;;;1999.90;999.90;;;;;;;;;;4978931;28;20030;-73
2023/05/15 18:28:32;;;;;;;1999.90;999.90;;;;;;;;;;4979359;28;20030;-71
2023/05/15 18:30:58;;;;;;;1999.90;999.90;;;;;;;;;;4996734;28;20466;-73
2023/05/15 18:33:24;;;;;;;1999.90;999.90;;;;;;;;;;4996467;28;20077;-73
2023/05/15 18:35:51;;;;;;;1999.90;999.90;;;;;;;;;;4996193;28;20022;-72
2023/05/15 18:38:19;;;;;;;1999.90;999.90;;;;;;;;;;4979344;28;20106;-72
2023/05/15 18:40:46;;;;;;;1999.90;999.90;;;;;;;;;;4978889;28;20030;-72
2023/05/15 18:43:12;;;;;;;1999.90;999.90;;;;;;;;;;4996465;28;20196;-72
2023/05/15 18:45:38;;;;;;;1999.90;999.90;;;;;;;;;;4996434;28;20030;-72